createdAt,value
2023-01-17T00:01:49.821Z,100.00
2023-01-17T00:04:35.089Z,100.00
2023-01-17T00:07:30.967Z,100.00
2023-01-17T00:10:04.494Z,100.00
2023-01-17T00:12:31.529Z,100.00
2023-01-17T00:14:58.999Z,100.00
2023-01-17T00:17:27.244Z,100.00
2023-01-17T00:20:12.932Z,100.00
2023-01-17T00:22:58.957Z,100.00
2023-01-17T00:25:48.469Z,100.00
2023-01-17T00:28:15.366Z,100.00
2023-01-17T00:30:42.139Z,100.00
2023-01-17T00:33:08.985Z,100.00
2023-01-17T00:35:35.914Z,100.00
2023-01-17T00:38:13.145Z,100.00
2023-01-17T00:40:42.019Z,100.00
2023-01-17T00:43:28.976Z,100.00
2023-01-17T00:46:14.777Z,100.00
2023-01-17T00:49:01.133Z,100.00
2023-01-17T00:51:48.104Z,100.00
2023-01-17T00:54:34.044Z,100.00
2023-01-17T00:57:19.476Z,100.00
2023-01-17T01:00:05.477Z,100.00
2023-01-17T01:02:51.221Z,100.00
2023-01-17T01:05:37.324Z,100.00
2023-01-17T01:08:22.841Z,100.00
2023-01-17T01:11:08.239Z,100.00
2023-01-17T01:13:53.852Z,100.00
2023-01-17T01:16:39.314Z,100.00
2023-01-17T01:19:24.828Z,100.00
2023-01-17T01:22:10.127Z,100.00
2023-01-17T01:24:55.658Z,100.00
2023-01-17T01:27:41.562Z,100.00
2023-01-17T01:30:27.442Z,100.00
2023-01-17T01:33:12.908Z,100.00
2023-01-17T01:35:41.891Z,100.00
2023-01-17T01:38:08.902Z,100.00
2023-01-17T01:40:41.115Z,100.00
2023-01-17T01:43:12.305Z,100.00
2023-01-17T01:45:39.825Z,100.00
2023-01-17T01:48:37.083Z,100.00
2023-01-17T01:51:06.894Z,100.00
2023-01-17T01:53:36.149Z,100.00
2023-01-17T01:56:03.826Z,100.00
2023-01-17T01:58:32.574Z,100.00
2023-01-17T02:00:59.442Z,100.00
2023-01-17T02:03:29.406Z,100.00
2023-01-17T02:06:02.779Z,100.00
2023-01-17T02:08:29.757Z,100.00
2023-01-17T02:10:56.727Z,100.00
2023-01-17T02:13:23.569Z,100.00
2023-01-17T02:16:09.296Z,100.00
2023-01-17T02:19:00.836Z,100.00
2023-01-17T02:21:33.357Z,100.00
2023-01-17T02:24:18.389Z,100.00
2023-01-17T02:26:56.005Z,100.00
2023-01-17T02:29:49.359Z,100.00
2023-01-17T02:32:57.616Z,100.00
2023-01-17T02:35:28.206Z,100.00
2023-01-17T02:38:21.518Z,100.00
2023-01-17T02:40:58.928Z,100.00
2023-01-17T02:43:26.361Z,100.00
2023-01-17T02:45:53.185Z,100.00
2023-01-17T02:48:22.801Z,100.00
2023-01-17T02:51:14.128Z,100.00
2023-01-17T02:54:03.448Z,100.00
2023-01-17T02:56:48.549Z,100.00
2023-01-17T02:59:53.780Z,100.00
2023-01-17T03:02:27.842Z,100.00
2023-01-17T03:05:00.762Z,100.00
2023-01-17T03:07:28.440Z,100.00
2023-01-17T03:09:59.912Z,100.00
2023-01-17T03:12:29.390Z,100.00
2023-01-17T03:14:56.440Z,100.00
2023-01-17T03:17:25.654Z,100.00
2023-01-17T03:19:52.569Z,100.00
2023-01-17T03:22:19.500Z,100.00
2023-01-17T03:24:46.335Z,100.00
2023-01-17T03:27:13.231Z,100.00
2023-01-17T03:29:40.067Z,100.00
2023-01-17T03:32:06.967Z,100.00
2023-01-17T03:34:33.843Z,100.00
2023-01-17T03:37:00.699Z,100.00
2023-01-17T03:39:27.510Z,100.00
2023-01-17T03:41:54.314Z,100.00
2023-01-17T03:44:21.130Z,100.00
2023-01-17T03:46:47.925Z,100.00
2023-01-17T03:49:16.686Z,100.00
2023-01-17T03:51:44.326Z,100.00
2023-01-17T03:54:11.259Z,100.00
2023-01-17T03:56:38.088Z,100.00
2023-01-17T03:59:04.977Z,100.00
2023-01-17T04:01:31.937Z,100.00
2023-01-17T04:03:58.800Z,100.00
2023-01-17T04:06:25.630Z,100.00
2023-01-17T04:08:53.077Z,100.00
2023-01-17T04:11:19.944Z,100.00
2023-01-17T04:13:46.813Z,100.00
2023-01-17T04:16:16.593Z,100.00
2023-01-17T04:18:43.845Z,100.00
2023-01-17T04:21:10.879Z,100.00
2023-01-17T04:23:37.783Z,100.00
2023-01-17T04:26:04.729Z,100.00
2023-01-17T04:28:31.810Z,100.00
2023-01-17T04:30:59.997Z,100.00
2023-01-17T04:33:27.171Z,100.00
2023-01-17T04:35:54.437Z,100.00
2023-01-17T04:38:21.955Z,100.00
2023-01-17T04:40:49.170Z,100.00
2023-01-17T04:43:16.801Z,100.00
2023-01-17T04:45:43.979Z,100.00
2023-01-17T04:48:12.683Z,100.00
2023-01-17T04:50:40.190Z,100.00
2023-01-17T04:53:07.101Z,100.00
2023-01-17T04:55:33.981Z,100.00
2023-01-17T04:58:00.946Z,100.00
2023-01-17T05:00:27.747Z,100.00
2023-01-17T05:02:54.731Z,100.00
2023-01-17T05:05:21.608Z,100.00
2023-01-17T05:07:57.972Z,100.00
2023-01-17T05:10:25.317Z,100.00
2023-01-17T05:12:59.392Z,100.00
2023-01-17T05:15:27.007Z,100.00
2023-01-17T05:17:54.314Z,100.00
2023-01-17T05:20:22.794Z,100.00
2023-01-17T05:22:55.565Z,100.00
2023-01-17T05:25:24.407Z,100.00
2023-01-17T05:27:51.543Z,100.00
2023-01-17T05:30:18.712Z,100.00
2023-01-17T05:32:49.534Z,100.00
2023-01-17T05:35:21.771Z,100.00
2023-01-17T05:37:50.677Z,100.00
2023-01-17T05:40:25.542Z,100.00
2023-01-17T05:42:53.773Z,100.00
2023-01-17T05:45:22.001Z,100.00
2023-01-17T05:47:50.889Z,100.00
2023-01-17T05:50:24.677Z,100.00
2023-01-17T05:53:03.184Z,100.00
2023-01-17T05:55:31.063Z,100.00
2023-01-17T05:57:58.311Z,100.00
2023-01-17T06:00:25.688Z,100.00
2023-01-17T06:02:56.587Z,100.00
2023-01-17T06:05:24.293Z,100.00
2023-01-17T06:07:51.659Z,100.00
2023-01-17T06:10:19.516Z,100.00
2023-01-17T06:12:47.309Z,100.00
2023-01-17T06:15:15.957Z,100.00
2023-01-17T06:17:43.092Z,100.00
2023-01-17T06:20:12.342Z,100.00
2023-01-17T06:22:39.341Z,100.00
2023-01-17T06:25:07.040Z,100.00
2023-01-17T06:27:34.104Z,100.00
2023-01-17T06:30:01.251Z,100.00
2023-01-17T06:32:28.176Z,100.00
2023-01-17T06:34:55.085Z,100.00
2023-01-17T06:37:21.976Z,100.00
2023-01-17T06:39:49.142Z,100.00
2023-01-17T06:42:16.335Z,100.00
2023-01-17T06:44:43.400Z,100.00
2023-01-17T06:47:10.348Z,100.00
2023-01-17T06:49:37.193Z,100.00
2023-01-17T06:52:04.272Z,100.00
2023-01-17T06:54:31.080Z,100.00
2023-01-17T06:56:57.867Z,100.00
2023-01-17T06:59:24.686Z,100.00
2023-01-17T07:01:52.473Z,100.00
2023-01-17T07:04:19.812Z,100.00
2023-01-17T07:06:46.630Z,100.00
2023-01-17T07:09:13.503Z,100.00
2023-01-17T07:11:40.470Z,100.00
2023-01-17T07:14:12.561Z,100.00
2023-01-17T07:16:39.372Z,100.00
2023-01-17T07:19:06.279Z,100.00
2023-01-17T07:21:33.120Z,100.00
2023-01-17T07:24:00.501Z,100.00
2023-01-17T07:26:27.324Z,100.00
2023-01-17T07:28:54.141Z,100.00
2023-01-17T07:31:21.010Z,100.00
2023-01-17T07:33:47.812Z,100.00
2023-01-17T07:36:14.766Z,100.00
2023-01-17T07:38:43.877Z,100.00
2023-01-17T07:41:11.159Z,100.00
2023-01-17T07:43:38.426Z,100.00
2023-01-17T07:46:07.343Z,100.00
2023-01-17T07:48:34.246Z,100.00
2023-01-17T07:51:01.151Z,100.00
2023-01-17T07:53:29.726Z,100.00
2023-01-17T07:56:04.644Z,100.00
2023-01-17T07:58:32.489Z,100.00
2023-01-17T08:01:04.140Z,100.00
2023-01-17T08:03:32.468Z,100.00
2023-01-17T08:05:59.399Z,100.00
2023-01-17T08:08:27.851Z,100.00
2023-01-17T08:10:54.913Z,100.00
2023-01-17T08:13:22.175Z,100.00
2023-01-17T08:15:50.064Z,100.00
2023-01-17T08:18:17.811Z,100.00
2023-01-17T08:20:45.040Z,100.00
2023-01-17T08:23:12.245Z,100.00
2023-01-17T08:25:40.147Z,100.00
2023-01-17T08:28:06.998Z,100.00
2023-01-17T08:30:34.824Z,100.00
2023-01-17T08:33:01.782Z,100.00
2023-01-17T08:35:28.833Z,100.00
2023-01-17T08:37:56.407Z,100.00
2023-01-17T08:40:24.071Z,100.00
2023-01-17T08:42:58.711Z,100.00
2023-01-17T08:45:25.759Z,100.00
2023-01-17T08:47:52.975Z,100.00
2023-01-17T08:50:22.723Z,100.00
2023-01-17T08:52:50.407Z,100.00
2023-01-17T08:55:17.826Z,100.00
2023-01-17T08:57:44.651Z,100.00
2023-01-17T09:00:12.067Z,100.00
2023-01-17T09:02:38.914Z,100.00
2023-01-17T09:05:06.278Z,100.00
2023-01-17T09:07:33.215Z,100.00
2023-01-17T09:10:00.008Z,100.00
2023-01-17T09:12:26.840Z,100.00
2023-01-17T09:14:53.794Z,100.00
2023-01-17T09:17:20.799Z,100.00
2023-01-17T09:19:48.812Z,100.00
2023-01-17T09:22:15.816Z,100.00
2023-01-17T09:24:42.693Z,100.00
2023-01-17T09:27:09.522Z,100.00
2023-01-17T09:29:36.444Z,100.00
2023-01-17T09:32:03.549Z,100.00
2023-01-17T09:34:30.713Z,100.00
2023-01-17T09:36:57.733Z,99.66
2023-01-17T09:39:24.714Z,98.70
2023-01-17T09:41:58.913Z,100.00
2023-01-17T09:44:41.125Z,100.00
2023-01-17T09:47:17.588Z,99.24
2023-01-17T09:49:46.600Z,98.66
2023-01-17T09:52:20.971Z,98.11
2023-01-17T09:54:49.344Z,97.27
2023-01-17T09:57:41.746Z,97.31
2023-01-17T10:00:08.949Z,95.06
2023-01-17T10:02:51.279Z,95.57
2023-01-17T10:05:36.981Z,94.28
2023-01-17T10:08:09.883Z,91.63
2023-01-17T10:10:50.445Z,92.58
2023-01-17T10:13:17.139Z,91.46
2023-01-17T10:15:51.602Z,92.15
2023-01-17T10:18:52.522Z,92.48
2023-01-17T10:21:49.536Z,93.54
2023-01-17T10:24:22.257Z,92.78
2023-01-17T10:26:56.401Z,92.33
2023-01-17T10:29:28.010Z,91.52
2023-01-17T10:32:02.366Z,92.04
2023-01-17T10:34:45.489Z,91.49
2023-01-17T10:37:19.010Z,90.03
2023-01-17T10:39:48.653Z,90.00
2023-01-17T10:42:15.376Z,89.62
2023-01-17T10:45:14.312Z,89.70
2023-01-17T10:47:42.505Z,89.75
2023-01-17T10:50:13.211Z,90.12
2023-01-17T10:52:53.262Z,89.70
2023-01-17T10:55:40.157Z,89.17
2023-01-17T10:58:11.495Z,88.62
2023-01-17T11:01:01.526Z,88.47
2023-01-17T11:03:28.882Z,89.00
2023-01-17T11:06:16.070Z,89.23
2023-01-17T11:08:57.445Z,90.45
2023-01-17T11:11:30.082Z,90.73
2023-01-17T11:14:01.573Z,90.23
2023-01-17T11:16:31.400Z,90.07
2023-01-17T11:19:10.508Z,89.20
2023-01-17T11:21:39.307Z,88.70
2023-01-17T11:24:11.572Z,88.26
2023-01-17T11:26:47.493Z,87.52
2023-01-17T11:29:16.321Z,87.66
2023-01-17T11:31:43.260Z,87.36
2023-01-17T11:34:17.271Z,88.00
2023-01-17T11:36:44.185Z,87.58
2023-01-17T11:39:17.179Z,87.54
2023-01-17T11:41:46.022Z,87.11
2023-01-17T11:44:28.277Z,88.05
2023-01-17T11:47:14.462Z,88.34
2023-01-17T11:49:46.193Z,87.93
2023-01-17T11:52:18.976Z,88.42
2023-01-17T11:54:47.235Z,87.68
2023-01-17T11:57:24.322Z,87.87
2023-01-17T12:00:11.657Z,87.78
2023-01-17T12:02:57.120Z,87.76
2023-01-17T12:05:28.995Z,87.63
2023-01-17T12:08:14.393Z,86.21
2023-01-17T12:10:56.229Z,87.23
2023-01-17T12:14:02.195Z,86.80
2023-01-17T12:16:38.907Z,86.52
2023-01-17T12:19:18.507Z,86.01
2023-01-17T12:22:25.359Z,86.32
2023-01-17T12:25:20.546Z,84.79
2023-01-17T12:28:26.732Z,83.58
2023-01-17T12:31:20.794Z,85.54
2023-01-17T12:33:52.502Z,85.83
2023-01-17T12:36:27.661Z,85.58
2023-01-17T12:38:56.617Z,85.88
2023-01-17T12:41:34.175Z,83.95
2023-01-17T12:44:01.318Z,81.77
2023-01-17T12:46:38.705Z,82.21
2023-01-17T12:49:24.785Z,81.04
2023-01-17T12:52:17.327Z,80.24
2023-01-17T12:54:48.057Z,80.26
2023-01-17T12:57:22.448Z,80.10
2023-01-17T13:00:05.193Z,79.86
2023-01-17T13:02:52.643Z,79.86
2023-01-17T13:05:23.908Z,79.62
2023-01-17T13:07:57.883Z,80.70
2023-01-17T13:10:32.084Z,80.56
2023-01-17T13:13:22.406Z,79.88
2023-01-17T13:15:51.237Z,79.98
2023-01-17T13:18:23.232Z,79.83
2023-01-17T13:21:04.912Z,79.65
2023-01-17T13:24:07.714Z,80.73
2023-01-17T13:26:36.387Z,80.13
2023-01-17T13:29:35.190Z,80.22
2023-01-17T13:32:23.403Z,81.26
2023-01-17T13:35:06.211Z,82.23
2023-01-17T13:37:56.894Z,79.37
2023-01-17T13:40:50.014Z,81.20
2023-01-17T13:43:25.851Z,81.62
2023-01-17T13:46:00.469Z,82.06
2023-01-17T13:48:32.227Z,82.01
2023-01-17T13:51:06.306Z,82.62
2023-01-17T13:53:36.896Z,83.57
2023-01-17T13:56:19.028Z,84.28
2023-01-17T13:58:54.398Z,85.54
2023-01-17T14:01:24.532Z,86.73
2023-01-17T14:03:51.767Z,87.62
2023-01-17T14:06:37.924Z,88.28
2023-01-17T14:09:12.164Z,88.50
2023-01-17T14:12:03.144Z,88.26
2023-01-17T14:14:43.632Z,88.69
2023-01-17T14:17:16.709Z,88.60
2023-01-17T14:19:47.714Z,87.30
2023-01-17T14:22:18.358Z,87.47
2023-01-17T14:25:11.022Z,88.51
2023-01-17T14:27:43.640Z,89.42
2023-01-17T14:30:46.010Z,89.92
2023-01-17T14:33:18.382Z,90.78
2023-01-17T14:35:54.933Z,91.00
2023-01-17T14:38:27.439Z,89.68
2023-01-17T14:40:57.443Z,88.99
2023-01-17T14:43:26.648Z,88.80
2023-01-17T14:45:58.740Z,88.23
2023-01-17T14:48:25.929Z,88.02
2023-01-17T14:50:55.026Z,87.56
2023-01-17T14:53:29.113Z,88.29
2023-01-17T14:55:56.658Z,88.50
2023-01-17T14:58:32.213Z,88.89
2023-01-17T15:01:03.768Z,89.73
2023-01-17T15:03:33.986Z,90.21
2023-01-17T15:06:11.234Z,90.42
2023-01-17T15:08:38.539Z,91.03
2023-01-17T15:11:08.839Z,91.44
2023-01-17T15:13:47.905Z,92.21
2023-01-17T15:16:24.838Z,92.64
2023-01-17T15:18:53.263Z,93.01
2023-01-17T15:21:22.833Z,93.54
2023-01-17T15:24:01.500Z,94.06
2023-01-17T15:26:33.467Z,94.44
2023-01-17T15:29:05.428Z,94.60
2023-01-17T15:31:47.230Z,95.14
2023-01-17T15:34:35.077Z,95.78
2023-01-17T15:37:04.551Z,96.16
2023-01-17T15:39:39.297Z,96.43
2023-01-17T15:42:08.410Z,96.99
2023-01-17T15:44:48.381Z,97.00
2023-01-17T15:47:33.944Z,97.43
2023-01-17T15:50:03.591Z,97.78
2023-01-17T15:52:30.656Z,97.92
2023-01-17T15:55:12.639Z,98.09
2023-01-17T15:57:39.724Z,98.81
2023-01-17T16:00:20.265Z,98.99
2023-01-17T16:02:55.367Z,99.25
2023-01-17T16:05:23.130Z,99.32
2023-01-17T16:08:02.733Z,99.66
2023-01-17T16:10:32.057Z,99.95
2023-01-17T16:12:59.801Z,100.00
2023-01-17T16:15:27.469Z,100.00
2023-01-17T16:18:07.677Z,100.00
2023-01-17T16:20:37.494Z,100.00
2023-01-17T16:23:04.370Z,100.00
2023-01-17T16:25:34.723Z,100.00
2023-01-17T16:28:07.181Z,100.00
2023-01-17T16:30:34.157Z,100.00
2023-01-17T16:33:03.027Z,100.00
2023-01-17T16:35:32.270Z,100.00
2023-01-17T16:38:02.326Z,100.00
2023-01-17T16:40:31.939Z,100.00
2023-01-17T16:42:59.884Z,100.00
2023-01-17T16:45:27.269Z,100.00
2023-01-17T16:47:54.518Z,100.00
2023-01-17T16:50:25.173Z,100.00
2023-01-17T16:52:53.529Z,100.00
2023-01-17T16:55:22.354Z,100.00
2023-01-17T16:57:50.378Z,100.00
2023-01-17T17:00:18.678Z,100.00
2023-01-17T17:02:50.064Z,100.00
2023-01-17T17:05:17.055Z,100.00
2023-01-17T17:07:45.921Z,100.00
2023-01-17T17:10:14.659Z,100.00
2023-01-17T17:12:41.997Z,100.00
2023-01-17T17:15:10.060Z,100.00
2023-01-17T17:17:41.748Z,100.00
2023-01-17T17:20:12.327Z,100.00
2023-01-17T17:22:40.423Z,100.00
2023-01-17T17:25:07.619Z,100.00
2023-01-17T17:27:35.030Z,100.00
2023-01-17T17:30:01.979Z,100.00
2023-01-17T17:32:28.966Z,100.00
2023-01-17T17:34:55.980Z,100.00
2023-01-17T17:37:23.802Z,100.00
2023-01-17T17:39:50.802Z,100.00
2023-01-17T17:42:19.663Z,100.00
2023-01-17T17:44:46.661Z,100.00
2023-01-17T17:47:13.744Z,100.00
2023-01-17T17:49:40.778Z,100.00
2023-01-17T17:52:08.357Z,100.00
2023-01-17T17:54:35.781Z,100.00
2023-01-17T17:57:02.792Z,100.00
2023-01-17T17:59:29.985Z,100.00
2023-01-17T18:01:58.843Z,100.00
2023-01-17T18:04:26.115Z,100.00
2023-01-17T18:06:56.958Z,100.00
2023-01-17T18:09:24.088Z,100.00
2023-01-17T18:11:51.507Z,100.00
2023-01-17T18:14:22.163Z,100.00
2023-01-17T18:16:50.708Z,100.00
2023-01-17T18:19:21.654Z,100.00
2023-01-17T18:21:50.432Z,100.00
2023-01-17T18:24:19.925Z,100.00
2023-01-17T18:26:50.083Z,100.00
2023-01-17T18:29:18.903Z,100.00
2023-01-17T18:31:47.034Z,100.00
2023-01-17T18:34:15.752Z,100.00
2023-01-17T18:36:43.756Z,100.00
2023-01-17T18:39:13.515Z,100.00
2023-01-17T18:41:41.767Z,100.00
2023-01-17T18:44:12.807Z,100.00
2023-01-17T18:46:42.198Z,100.00
2023-01-17T18:49:14.796Z,100.00
2023-01-17T18:51:46.649Z,100.00
2023-01-17T18:54:13.671Z,100.00
2023-01-17T18:56:42.481Z,100.00
2023-01-17T18:59:14.714Z,100.00
2023-01-17T19:01:43.728Z,100.00
2023-01-17T19:04:15.126Z,100.00
2023-01-17T19:06:47.587Z,100.00
2023-01-17T19:09:15.915Z,100.00
2023-01-17T19:11:44.860Z,100.00
2023-01-17T19:14:12.999Z,100.00
2023-01-17T19:16:41.310Z,100.00
2023-01-17T19:19:10.604Z,100.00
2023-01-17T19:21:37.558Z,100.00
2023-01-17T19:24:05.152Z,100.00
2023-01-17T19:26:33.230Z,100.00
2023-01-17T19:29:00.452Z,100.00
2023-01-17T19:31:29.537Z,100.00
2023-01-17T19:33:58.227Z,100.00
2023-01-17T19:36:29.235Z,100.00
2023-01-17T19:39:04.440Z,100.00
2023-01-17T19:41:34.574Z,100.00
2023-01-17T19:44:04.406Z,100.00
2023-01-17T19:46:33.816Z,100.00
2023-01-17T19:49:01.655Z,100.00
2023-01-17T19:51:29.217Z,100.00
2023-01-17T19:53:56.818Z,100.00
2023-01-17T19:56:25.861Z,100.00
2023-01-17T19:58:53.435Z,100.00
2023-01-17T20:01:28.052Z,100.00
2023-01-17T20:03:57.825Z,100.00
2023-01-17T20:06:27.804Z,100.00
2023-01-17T20:08:54.948Z,100.00
2023-01-17T20:11:23.599Z,100.00
2023-01-17T20:13:58.366Z,100.00
2023-01-17T20:16:27.029Z,100.00
2023-01-17T20:18:53.967Z,100.00
2023-01-17T20:21:26.085Z,100.00
2023-01-17T20:23:54.363Z,100.00
2023-01-17T20:26:25.224Z,100.00
2023-01-17T20:28:53.307Z,100.00
2023-01-17T20:31:25.359Z,100.00
2023-01-17T20:33:55.958Z,100.00
2023-01-17T20:36:24.972Z,100.00
2023-01-17T20:38:53.330Z,100.00
2023-01-17T20:41:20.240Z,100.00
2023-01-17T20:43:49.626Z,100.00
2023-01-17T20:46:17.665Z,100.00
2023-01-17T20:48:47.275Z,100.00
2023-01-17T20:51:15.186Z,100.00
2023-01-17T20:53:43.652Z,100.00
2023-01-17T20:56:12.599Z,100.00
2023-01-17T20:58:39.866Z,100.00
2023-01-17T21:01:09.365Z,100.00
2023-01-17T21:03:37.599Z,100.00
2023-01-17T21:06:07.005Z,100.00
2023-01-17T21:08:36.098Z,100.00
2023-01-17T21:11:03.326Z,100.00
2023-01-17T21:13:31.689Z,100.00
2023-01-17T21:15:58.916Z,100.00
2023-01-17T21:18:26.979Z,100.00
2023-01-17T21:20:54.669Z,100.00
2023-01-17T21:23:23.489Z,100.00
2023-01-17T21:25:57.679Z,100.00
2023-01-17T21:28:27.616Z,100.00
2023-01-17T21:30:54.827Z,100.00
2023-01-17T21:33:22.812Z,100.00
2023-01-17T21:35:49.884Z,100.00
2023-01-17T21:38:16.741Z,100.00
2023-01-17T21:40:44.320Z,100.00
2023-01-17T21:43:11.537Z,100.00
2023-01-17T21:45:39.534Z,100.00
2023-01-17T21:48:07.076Z,100.00
2023-01-17T21:50:34.179Z,100.00
2023-01-17T21:53:00.948Z,100.00
2023-01-17T21:55:46.339Z,100.00
2023-01-17T21:58:33.157Z,100.00
2023-01-17T22:01:10.925Z,100.00
2023-01-17T22:03:38.161Z,100.00
2023-01-17T22:06:05.059Z,100.00
2023-01-17T22:08:33.456Z,100.00
2023-01-17T22:11:14.928Z,100.00
2023-01-17T22:13:42.996Z,100.00
2023-01-17T22:16:36.054Z,100.00
2023-01-17T22:19:03.004Z,100.00
2023-01-17T22:21:29.971Z,100.00
2023-01-17T22:23:59.952Z,100.00
2023-01-17T22:26:29.401Z,100.00
2023-01-17T22:28:59.189Z,100.00
2023-01-17T22:31:27.237Z,100.00
2023-01-17T22:33:59.507Z,100.00
2023-01-17T22:36:26.740Z,100.00
2023-01-17T22:38:53.661Z,100.00
2023-01-17T22:41:23.696Z,100.00
2023-01-17T22:43:52.676Z,100.00
2023-01-17T22:46:22.427Z,100.00
2023-01-17T22:48:49.747Z,100.00
2023-01-17T22:51:18.584Z,100.00
2023-01-17T22:53:47.952Z,100.00
2023-01-17T22:56:17.714Z,100.00
2023-01-17T22:58:45.061Z,100.00
2023-01-17T23:01:19.992Z,100.00
2023-01-17T23:03:52.241Z,100.00
2023-01-17T23:06:21.764Z,100.00
2023-01-17T23:08:51.109Z,100.00
2023-01-17T23:11:39.801Z,100.00
2023-01-17T23:14:07.722Z,100.00
2023-01-17T23:16:53.143Z,100.00
2023-01-17T23:19:22.901Z,100.00
2023-01-17T23:22:13.633Z,100.00
2023-01-17T23:24:44.274Z,100.00
2023-01-17T23:27:41.549Z,100.00
2023-01-17T23:30:16.847Z,100.00
2023-01-17T23:32:51.482Z,100.00
2023-01-17T23:35:21.012Z,100.00
2023-01-17T23:38:06.827Z,100.00
2023-01-17T23:40:36.128Z,100.00
2023-01-17T23:43:21.995Z,100.00
2023-01-17T23:45:53.192Z,100.00
2023-01-17T23:48:28.481Z,100.00
2023-01-17T23:51:08.520Z,100.00
2023-01-17T23:53:36.793Z,100.00
2023-01-17T23:56:23.208Z,100.00
2023-01-17T23:58:50.147Z,100.00
